sensor_id;sensor_type;location;lat;lon;timestamp;P1;durP1;ratioP1;P2;durP2;ratioP2
313;SDS011;143;51.634;7.112;2022-09-09T00:04:28;11.10;;;1.00;;
313;SDS011;143;51.634;7.112;2022-09-09T00:09:45;2.60;;;1.27;;
313;SDS011;143;51.634;7.112;2022-09-09T00:14:50;2.40;;;1.13;;
313;SDS011;143;51.634;7.112;2022-09-09T00:19:58;6.27;;;1.30;;
313;SDS011;143;51.634;7.112;2022-09-09T00:22:27;2.77;;;1.20;;
313;SDS011;143;51.634;7.112;2022-09-09T00:25:02;1.90;;;1.00;;
313;SDS011;143;51.634;7.112;2022-09-09T00:27:40;7.00;;;1.33;;
313;SDS011;143;51.634;7.112;2022-09-09T00:30:20;3.87;;;1.37;;
313;SDS011;143;51.634;7.112;2022-09-09T00:32:53;2.10;;;1.20;;
313;SDS011;143;51.634;7.112;2022-09-09T00:37:58;1.60;;;1.10;;
313;SDS011;143;51.634;7.112;2022-09-09T00:43:43;3.37;;;1.00;;
313;SDS011;143;51.634;7.112;2022-09-09T00:46:05;2.03;;;1.33;;
313;SDS011;143;51.634;7.112;2022-09-09T00:48:53;3.20;;;1.80;;
313;SDS011;143;51.634;7.112;2022-09-09T00:54:11;4.87;;;1.23;;
313;SDS011;143;51.634;7.112;2022-09-09T01:05:44;5.03;;;1.40;;
313;SDS011;143;51.634;7.112;2022-09-09T01:11:16;3.47;;;1.00;;
313;SDS011;143;51.634;7.112;2022-09-09T01:13:49;8.10;;;1.80;;
313;SDS011;143;51.634;7.112;2022-09-09T01:16:24;5.03;;;1.00;;
313;SDS011;143;51.634;7.112;2022-09-09T01:18:52;6.57;;;1.80;;
313;SDS011;143;51.634;7.112;2022-09-09T01:26:35;2.80;;;1.80;;
313;SDS011;143;51.634;7.112;2022-09-09T01:29:14;3.50;;;1.17;;
313;SDS011;143;51.634;7.112;2022-09-09T01:31:51;6.20;;;1.53;;
313;SDS011;143;51.634;7.112;2022-09-09T01:34:17;3.70;;;1.37;;
313;SDS011;143;51.634;7.112;2022-09-09T01:36:53;8.53;;;2.67;;
313;SDS011;143;51.634;7.112;2022-09-09T01:39:32;2.80;;;1.73;;
313;SDS011;143;51.634;7.112;2022-09-09T01:41:59;2.90;;;1.40;;
313;SDS011;143;51.634;7.112;2022-09-09T01:44:26;5.17;;;2.53;;
313;SDS011;143;51.634;7.112;2022-09-09T01:46:54;8.53;;;1.73;;
313;SDS011;143;51.634;7.112;2022-09-09T01:49:20;7.63;;;1.90;;
313;SDS011;143;51.634;7.112;2022-09-09T01:51:48;3.83;;;1.80;;
313;SDS011;143;51.634;7.112;2022-09-09T01:54:18;4.17;;;1.80;;
313;SDS011;143;51.634;7.112;2022-09-09T02:08:00;5.90;;;2.10;;
313;SDS011;143;51.634;7.112;2022-09-09T02:10:56;3.97;;;2.10;;
313;SDS011;143;51.634;7.112;2022-09-09T02:13:30;2.70;;;1.60;;
313;SDS011;143;51.634;7.112;2022-09-09T02:16:42;3.43;;;2.33;;
313;SDS011;143;51.634;7.112;2022-09-09T02:19:06;3.43;;;1.37;;
313;SDS011;143;51.634;7.112;2022-09-09T02:21:39;3.67;;;1.40;;
313;SDS011;143;51.634;7.112;2022-09-09T02:24:07;3.73;;;1.30;;
313;SDS011;143;51.634;7.112;2022-09-09T02:26:36;5.50;;;1.80;;
313;SDS011;143;51.634;7.112;2022-09-09T02:29:06;4.03;;;1.80;;
313;SDS011;143;51.634;7.112;2022-09-09T02:31:35;4.30;;;1.30;;
313;SDS011;143;51.634;7.112;2022-09-09T02:34:03;2.60;;;1.27;;
313;SDS011;143;51.634;7.112;2022-09-09T02:36:32;4.63;;;1.60;;
313;SDS011;143;51.634;7.112;2022-09-09T02:39:00;2.47;;;1.50;;
313;SDS011;143;51.634;7.112;2022-09-09T02:41:28;3.30;;;1.70;;
313;SDS011;143;51.634;7.112;2022-09-09T02:43:57;6.40;;;2.17;;
313;SDS011;143;51.634;7.112;2022-09-09T02:49:03;10.10;;;2.23;;
313;SDS011;143;51.634;7.112;2022-09-09T02:56:43;4.47;;;1.80;;
313;SDS011;143;51.634;7.112;2022-09-09T02:59:14;10.80;;;1.70;;
313;SDS011;143;51.634;7.112;2022-09-09T03:01:41;10.23;;;2.53;;
313;SDS011;143;51.634;7.112;2022-09-09T03:04:07;3.93;;;1.90;;
313;SDS011;143;51.634;7.112;2022-09-09T03:06:32;2.30;;;1.60;;
313;SDS011;143;51.634;7.112;2022-09-09T03:08:58;5.73;;;2.27;;
313;SDS011;143;51.634;7.112;2022-09-09T03:11:26;4.03;;;1.70;;
313;SDS011;143;51.634;7.112;2022-09-09T03:13:52;5.20;;;2.00;;
313;SDS011;143;51.634;7.112;2022-09-09T03:16:20;4.60;;;1.93;;
313;SDS011;143;51.634;7.112;2022-09-09T03:18:47;6.60;;;2.23;;
313;SDS011;143;51.634;7.112;2022-09-09T03:21:12;4.13;;;2.10;;
313;SDS011;143;51.634;7.112;2022-09-09T03:23:39;6.10;;;2.00;;
313;SDS011;143;51.634;7.112;2022-09-09T03:26:05;3.73;;;2.13;;
313;SDS011;143;51.634;7.112;2022-09-09T03:28:31;5.90;;;2.10;;
313;SDS011;143;51.634;7.112;2022-09-09T03:31:00;6.63;;;2.13;;
313;SDS011;143;51.634;7.112;2022-09-09T03:33:30;8.87;;;2.03;;
313;SDS011;143;51.634;7.112;2022-09-09T03:35:56;6.23;;;2.07;;
313;SDS011;143;51.634;7.112;2022-09-09T03:38:24;5.77;;;2.30;;
313;SDS011;143;51.634;7.112;2022-09-09T03:40:51;2.97;;;1.80;;
313;SDS011;143;51.634;7.112;2022-09-09T03:43:21;4.40;;;2.17;;
313;SDS011;143;51.634;7.112;2022-09-09T03:45:47;3.93;;;1.93;;
313;SDS011;143;51.634;7.112;2022-09-09T03:48:13;6.37;;;2.70;;
313;SDS011;143;51.634;7.112;2022-09-09T03:50:43;5.60;;;2.17;;
313;SDS011;143;51.634;7.112;2022-09-09T03:53:13;4.93;;;1.97;;
313;SDS011;143;51.634;7.112;2022-09-09T03:55:44;4.20;;;2.27;;
313;SDS011;143;51.634;7.112;2022-09-09T03:58:13;4.83;;;2.33;;
313;SDS011;143;51.634;7.112;2022-09-09T04:00:40;6.03;;;2.53;;
313;SDS011;143;51.634;7.112;2022-09-09T04:03:10;6.17;;;2.33;;
313;SDS011;143;51.634;7.112;2022-09-09T04:05:38;6.70;;;2.60;;
313;SDS011;143;51.634;7.112;2022-09-09T04:08:07;4.70;;;2.43;;
313;SDS011;143;51.634;7.112;2022-09-09T04:10:33;3.10;;;2.37;;
313;SDS011;143;51.634;7.112;2022-09-09T04:13:02;8.50;;;2.90;;
313;SDS011;143;51.634;7.112;2022-09-09T04:15:28;8.63;;;2.57;;
313;SDS011;143;51.634;7.112;2022-09-09T04:17:54;5.33;;;2.63;;
313;SDS011;143;51.634;7.112;2022-09-09T04:20:20;6.47;;;2.80;;
313;SDS011;143;51.634;7.112;2022-09-09T04:22:47;5.80;;;2.70;;
313;SDS011;143;51.634;7.112;2022-09-09T04:25:12;6.07;;;2.53;;
313;SDS011;143;51.634;7.112;2022-09-09T04:27:38;6.83;;;2.60;;
313;SDS011;143;51.634;7.112;2022-09-09T04:30:05;4.47;;;2.23;;
313;SDS011;143;51.634;7.112;2022-09-09T04:32:34;7.27;;;2.67;;
313;SDS011;143;51.634;7.112;2022-09-09T04:35:01;7.70;;;2.40;;
313;SDS011;143;51.634;7.112;2022-09-09T04:37:28;10.23;;;3.07;;
313;SDS011;143;51.634;7.112;2022-09-09T04:39:53;6.60;;;3.00;;
313;SDS011;143;51.634;7.112;2022-09-09T04:42:19;5.93;;;3.10;;
313;SDS011;143;51.634;7.112;2022-09-09T04:44:45;10.00;;;3.10;;
313;SDS011;143;51.634;7.112;2022-09-09T04:47:11;4.70;;;2.40;;
313;SDS011;143;51.634;7.112;2022-09-09T04:49:36;4.13;;;2.60;;
313;SDS011;143;51.634;7.112;2022-09-09T04:52:03;3.77;;;2.80;;
313;SDS011;143;51.634;7.112;2022-09-09T04:54:29;5.10;;;2.60;;
313;SDS011;143;51.634;7.112;2022-09-09T04:56:55;3.37;;;2.50;;
313;SDS011;143;51.634;7.112;2022-09-09T04:59:21;10.10;;;3.23;;
313;SDS011;143;51.634;7.112;2022-09-09T05:01:47;8.23;;;2.40;;
313;SDS011;143;51.634;7.112;2022-09-09T05:04:13;7.97;;;2.90;;
313;SDS011;143;51.634;7.112;2022-09-09T05:06:41;5.53;;;2.33;;
313;SDS011;143;51.634;7.112;2022-09-09T05:09:07;7.50;;;2.50;;
313;SDS011;143;51.634;7.112;2022-09-09T05:11:34;5.50;;;2.30;;
313;SDS011;143;51.634;7.112;2022-09-09T05:14:03;4.17;;;2.20;;
313;SDS011;143;51.634;7.112;2022-09-09T05:16:29;11.27;;;3.13;;
313;SDS011;143;51.634;7.112;2022-09-09T05:18:55;6.60;;;2.87;;
313;SDS011;143;51.634;7.112;2022-09-09T05:21:22;7.03;;;2.40;;
313;SDS011;143;51.634;7.112;2022-09-09T05:23:50;10.17;;;2.43;;
313;SDS011;143;51.634;7.112;2022-09-09T05:26:19;7.10;;;2.97;;
313;SDS011;143;51.634;7.112;2022-09-09T05:28:46;7.93;;;2.53;;
313;SDS011;143;51.634;7.112;2022-09-09T05:31:12;6.50;;;2.23;;
313;SDS011;143;51.634;7.112;2022-09-09T05:33:40;5.07;;;2.67;;
313;SDS011;143;51.634;7.112;2022-09-09T05:36:08;14.20;;;3.00;;
313;SDS011;143;51.634;7.112;2022-09-09T05:38:37;5.67;;;2.03;;
313;SDS011;143;51.634;7.112;2022-09-09T05:41:04;10.53;;;2.63;;
313;SDS011;143;51.634;7.112;2022-09-09T05:43:30;6.30;;;2.50;;
313;SDS011;143;51.634;7.112;2022-09-09T05:46:01;4.87;;;2.13;;
313;SDS011;143;51.634;7.112;2022-09-09T05:48:33;14.33;;;3.00;;
313;SDS011;143;51.634;7.112;2022-09-09T05:51:00;8.97;;;2.30;;
313;SDS011;143;51.634;7.112;2022-09-09T05:53:27;9.10;;;2.10;;
313;SDS011;143;51.634;7.112;2022-09-09T05:56:04;7.37;;;2.20;;
313;SDS011;143;51.634;7.112;2022-09-09T05:58:34;6.83;;;2.80;;
313;SDS011;143;51.634;7.112;2022-09-09T06:01:02;8.57;;;2.40;;
313;SDS011;143;51.634;7.112;2022-09-09T06:03:37;5.93;;;2.20;;
313;SDS011;143;51.634;7.112;2022-09-09T06:06:05;7.33;;;2.60;;
313;SDS011;143;51.634;7.112;2022-09-09T06:08:33;7.57;;;2.33;;
313;SDS011;143;51.634;7.112;2022-09-09T06:11:05;6.20;;;2.00;;
313;SDS011;143;51.634;7.112;2022-09-09T06:13:31;8.33;;;2.33;;
313;SDS011;143;51.634;7.112;2022-09-09T06:15:57;10.63;;;2.40;;
313;SDS011;143;51.634;7.112;2022-09-09T06:18:24;5.03;;;2.00;;
313;SDS011;143;51.634;7.112;2022-09-09T06:20:57;5.70;;;2.30;;
313;SDS011;143;51.634;7.112;2022-09-09T06:23:25;13.13;;;3.80;;
313;SDS011;143;51.634;7.112;2022-09-09T06:26:00;7.10;;;2.67;;
313;SDS011;143;51.634;7.112;2022-09-09T06:28:30;9.33;;;3.10;;
313;SDS011;143;51.634;7.112;2022-09-09T06:30:57;14.23;;;2.20;;
313;SDS011;143;51.634;7.112;2022-09-09T06:33:24;9.10;;;2.80;;
313;SDS011;143;51.634;7.112;2022-09-09T06:35:53;6.17;;;2.17;;
313;SDS011;143;51.634;7.112;2022-09-09T06:38:20;9.60;;;2.87;;
313;SDS011;143;51.634;7.112;2022-09-09T06:40:51;7.20;;;2.67;;
313;SDS011;143;51.634;7.112;2022-09-09T06:43:21;5.50;;;3.10;;
313;SDS011;143;51.634;7.112;2022-09-09T06:45:56;10.50;;;2.60;;
313;SDS011;143;51.634;7.112;2022-09-09T06:48:24;6.73;;;2.80;;
313;SDS011;143;51.634;7.112;2022-09-09T06:51:09;8.83;;;3.33;;
313;SDS011;143;51.634;7.112;2022-09-09T06:53:37;5.47;;;2.37;;
313;SDS011;143;51.634;7.112;2022-09-09T06:58:41;9.73;;;2.70;;
313;SDS011;143;51.634;7.112;2022-09-09T07:01:09;5.80;;;2.10;;
313;SDS011;143;51.634;7.112;2022-09-09T07:03:37;8.60;;;2.90;;
313;SDS011;143;51.634;7.112;2022-09-09T07:06:04;7.07;;;2.47;;
313;SDS011;143;51.634;7.112;2022-09-09T07:08:31;22.67;;;3.63;;
313;SDS011;143;51.634;7.112;2022-09-09T07:11:03;7.63;;;2.30;;
313;SDS011;143;51.634;7.112;2022-09-09T07:13:30;23.57;;;2.90;;
313;SDS011;143;51.634;7.112;2022-09-09T07:16:03;8.07;;;2.63;;
313;SDS011;143;51.634;7.112;2022-09-09T07:18:33;9.83;;;2.80;;
313;SDS011;143;51.634;7.112;2022-09-09T07:20:59;14.23;;;2.87;;
313;SDS011;143;51.634;7.112;2022-09-09T07:23:27;6.17;;;2.80;;
313;SDS011;143;51.634;7.112;2022-09-09T07:25:52;12.23;;;3.33;;
313;SDS011;143;51.634;7.112;2022-09-09T07:28:19;6.20;;;2.30;;
313;SDS011;143;51.634;7.112;2022-09-09T07:31:01;11.43;;;3.20;;
313;SDS011;143;51.634;7.112;2022-09-09T07:33:27;8.00;;;2.67;;
313;SDS011;143;51.634;7.112;2022-09-09T07:36:10;14.33;;;3.17;;
313;SDS011;143;51.634;7.112;2022-09-09T07:38:40;10.13;;;2.27;;
313;SDS011;143;51.634;7.112;2022-09-09T07:41:08;8.63;;;2.63;;
313;SDS011;143;51.634;7.112;2022-09-09T07:43:40;6.57;;;2.57;;
313;SDS011;143;51.634;7.112;2022-09-09T07:46:07;7.60;;;2.37;;
313;SDS011;143;51.634;7.112;2022-09-09T07:48:34;8.10;;;1.97;;
313;SDS011;143;51.634;7.112;2022-09-09T07:51:07;5.67;;;2.83;;
313;SDS011;143;51.634;7.112;2022-09-09T07:53:36;6.93;;;2.40;;
313;SDS011;143;51.634;7.112;2022-09-09T07:56:07;13.80;;;2.40;;
313;SDS011;143;51.634;7.112;2022-09-09T07:58:38;14.40;;;3.50;;
313;SDS011;143;51.634;7.112;2022-09-09T08:01:15;15.00;;;3.43;;
313;SDS011;143;51.634;7.112;2022-09-09T08:03:46;8.07;;;2.17;;
313;SDS011;143;51.634;7.112;2022-09-09T08:06:12;7.30;;;2.00;;
313;SDS011;143;51.634;7.112;2022-09-09T08:08:39;7.63;;;2.50;;
313;SDS011;143;51.634;7.112;2022-09-09T08:11:09;4.83;;;1.97;;
313;SDS011;143;51.634;7.112;2022-09-09T08:13:43;5.87;;;2.07;;
313;SDS011;143;51.634;7.112;2022-09-09T08:16:14;11.03;;;2.10;;
313;SDS011;143;51.634;7.112;2022-09-09T08:18:41;8.60;;;1.80;;
313;SDS011;143;51.634;7.112;2022-09-09T08:21:10;6.57;;;1.50;;
313;SDS011;143;51.634;7.112;2022-09-09T08:23:41;9.73;;;1.93;;
313;SDS011;143;51.634;7.112;2022-09-09T08:26:15;14.17;;;2.00;;
313;SDS011;143;51.634;7.112;2022-09-09T08:28:43;9.73;;;1.70;;
313;SDS011;143;51.634;7.112;2022-09-09T08:31:16;9.77;;;1.70;;
313;SDS011;143;51.634;7.112;2022-09-09T08:33:44;7.50;;;2.20;;
313;SDS011;143;51.634;7.112;2022-09-09T08:36:13;9.50;;;2.40;;
313;SDS011;143;51.634;7.112;2022-09-09T08:38:48;8.07;;;2.10;;
313;SDS011;143;51.634;7.112;2022-09-09T08:44:22;7.13;;;1.70;;
313;SDS011;143;51.634;7.112;2022-09-09T08:52:36;6.80;;;1.93;;
313;SDS011;143;51.634;7.112;2022-09-09T08:58:02;7.90;;;1.93;;
313;SDS011;143;51.634;7.112;2022-09-09T09:00:49;4.80;;;1.60;;
313;SDS011;143;51.634;7.112;2022-09-09T09:06:36;10.73;;;1.80;;
313;SDS011;143;51.634;7.112;2022-09-09T09:12:17;6.77;;;1.73;;
313;SDS011;143;51.634;7.112;2022-09-09T09:14:54;9.67;;;1.77;;
313;SDS011;143;51.634;7.112;2022-09-09T09:17:23;6.17;;;1.47;;
313;SDS011;143;51.634;7.112;2022-09-09T09:19:52;9.63;;;1.80;;
313;SDS011;143;51.634;7.112;2022-09-09T09:25:19;4.70;;;1.40;;
313;SDS011;143;51.634;7.112;2022-09-09T09:28:00;11.90;;;1.40;;
313;SDS011;143;51.634;7.112;2022-09-09T09:30:36;3.17;;;1.00;;
313;SDS011;143;51.634;7.112;2022-09-09T09:35:57;5.80;;;1.40;;
313;SDS011;143;51.634;7.112;2022-09-09T09:38:25;7.63;;;1.30;;
313;SDS011;143;51.634;7.112;2022-09-09T09:40:53;5.57;;;1.50;;
313;SDS011;143;51.634;7.112;2022-09-09T09:43:29;11.17;;;1.37;;
313;SDS011;143;51.634;7.112;2022-09-09T09:45:57;4.00;;;1.10;;
313;SDS011;143;51.634;7.112;2022-09-09T09:48:24;5.53;;;1.73;;
313;SDS011;143;51.634;7.112;2022-09-09T09:50:53;12.57;;;1.83;;
313;SDS011;143;51.634;7.112;2022-09-09T09:55:55;6.00;;;1.50;;
313;SDS011;143;51.634;7.112;2022-09-09T09:58:26;5.43;;;1.30;;
313;SDS011;143;51.634;7.112;2022-09-09T10:00:57;5.10;;;1.60;;
313;SDS011;143;51.634;7.112;2022-09-09T10:05:54;6.23;;;1.40;;
313;SDS011;143;51.634;7.112;2022-09-09T10:08:21;8.00;;;1.73;;
313;SDS011;143;51.634;7.112;2022-09-09T10:16:24;6.30;;;1.23;;
313;SDS011;143;51.634;7.112;2022-09-09T10:19:05;3.10;;;1.30;;
313;SDS011;143;51.634;7.112;2022-09-09T10:25:04;4.50;;;1.40;;
313;SDS011;143;51.634;7.112;2022-09-09T10:30:56;12.57;;;1.90;;
313;SDS011;143;51.634;7.112;2022-09-09T10:36:13;9.20;;;1.17;;
313;SDS011;143;51.634;7.112;2022-09-09T10:38:47;13.50;;;1.70;;
313;SDS011;143;51.634;7.112;2022-09-09T10:46:51;3.83;;;1.10;;
313;SDS011;143;51.634;7.112;2022-09-09T10:49:42;3.87;;;1.30;;
313;SDS011;143;51.634;7.112;2022-09-09T10:52:41;10.40;;;1.50;;
313;SDS011;143;51.634;7.112;2022-09-09T10:55:35;3.50;;;1.10;;
313;SDS011;143;51.634;7.112;2022-09-09T10:58:08;3.20;;;0.93;;
313;SDS011;143;51.634;7.112;2022-09-09T11:00:40;2.93;;;1.10;;
313;SDS011;143;51.634;7.112;2022-09-09T11:03:21;3.40;;;1.20;;
313;SDS011;143;51.634;7.112;2022-09-09T11:05:52;2.97;;;0.93;;
313;SDS011;143;51.634;7.112;2022-09-09T11:08:36;4.03;;;1.23;;
313;SDS011;143;51.634;7.112;2022-09-09T11:11:21;4.87;;;1.13;;
313;SDS011;143;51.634;7.112;2022-09-09T11:13:55;6.50;;;1.40;;
313;SDS011;143;51.634;7.112;2022-09-09T11:16:33;4.00;;;1.03;;
313;SDS011;143;51.634;7.112;2022-09-09T11:22:02;3.77;;;1.20;;
313;SDS011;143;51.634;7.112;2022-09-09T11:27:35;4.50;;;1.10;;
313;SDS011;143;51.634;7.112;2022-09-09T11:32:39;3.90;;;1.33;;
313;SDS011;143;51.634;7.112;2022-09-09T11:35:29;8.70;;;1.30;;
313;SDS011;143;51.634;7.112;2022-09-09T11:40:54;4.83;;;1.40;;
313;SDS011;143;51.634;7.112;2022-09-09T11:44:08;6.10;;;1.43;;
313;SDS011;143;51.634;7.112;2022-09-09T11:46:17;2.83;;;1.10;;
313;SDS011;143;51.634;7.112;2022-09-09T11:48:57;6.07;;;1.83;;
313;SDS011;143;51.634;7.112;2022-09-09T11:51:26;8.20;;;1.93;;
313;SDS011;143;51.634;7.112;2022-09-09T11:53:54;2.93;;;1.00;;
313;SDS011;143;51.634;7.112;2022-09-09T11:59:20;4.43;;;1.50;;
313;SDS011;143;51.634;7.112;2022-09-09T12:04:27;3.07;;;1.20;;
313;SDS011;143;51.634;7.112;2022-09-09T12:17:20;7.20;;;1.20;;
313;SDS011;143;51.634;7.112;2022-09-09T12:19:48;7.10;;;1.40;;
313;SDS011;143;51.634;7.112;2022-09-09T12:33:12;4.97;;;1.37;;
313;SDS011;143;51.634;7.112;2022-09-09T12:35:41;7.47;;;1.90;;
313;SDS011;143;51.634;7.112;2022-09-09T12:38:18;9.20;;;2.30;;
313;SDS011;143;51.634;7.112;2022-09-09T12:40:55;5.17;;;2.43;;
313;SDS011;143;51.634;7.112;2022-09-09T12:43:23;9.80;;;2.53;;
313;SDS011;143;51.634;7.112;2022-09-09T12:45:51;10.13;;;2.47;;
313;SDS011;143;51.634;7.112;2022-09-09T12:48:22;3.67;;;1.73;;
313;SDS011;143;51.634;7.112;2022-09-09T12:51:26;10.37;;;2.10;;
313;SDS011;143;51.634;7.112;2022-09-09T12:53:55;2.50;;;1.60;;
313;SDS011;143;51.634;7.112;2022-09-09T12:56:26;3.93;;;1.73;;
313;SDS011;143;51.634;7.112;2022-09-09T12:58:55;6.10;;;1.63;;
313;SDS011;143;51.634;7.112;2022-09-09T13:01:30;6.60;;;1.67;;
313;SDS011;143;51.634;7.112;2022-09-09T13:03:57;6.77;;;1.70;;
313;SDS011;143;51.634;7.112;2022-09-09T13:06:24;5.47;;;1.60;;
313;SDS011;143;51.634;7.112;2022-09-09T13:08:52;5.03;;;1.83;;
313;SDS011;143;51.634;7.112;2022-09-09T13:11:23;3.10;;;1.37;;
313;SDS011;143;51.634;7.112;2022-09-09T13:13:56;3.63;;;1.30;;
313;SDS011;143;51.634;7.112;2022-09-09T13:16:27;2.53;;;1.00;;
313;SDS011;143;51.634;7.112;2022-09-09T13:18:58;7.50;;;0.97;;
313;SDS011;143;51.634;7.112;2022-09-09T13:21:36;6.80;;;1.40;;
313;SDS011;143;51.634;7.112;2022-09-09T13:24:06;10.30;;;1.27;;
313;SDS011;143;51.634;7.112;2022-09-09T13:26:56;2.30;;;0.90;;
313;SDS011;143;51.634;7.112;2022-09-09T13:29:22;3.17;;;1.40;;
313;SDS011;143;51.634;7.112;2022-09-09T13:31:48;2.33;;;1.03;;
313;SDS011;143;51.634;7.112;2022-09-09T13:34:28;9.87;;;2.40;;
313;SDS011;143;51.634;7.112;2022-09-09T13:37:01;4.20;;;1.20;;
313;SDS011;143;51.634;7.112;2022-09-09T13:39:31;3.50;;;1.03;;
313;SDS011;143;51.634;7.112;2022-09-09T13:42:01;6.60;;;1.50;;
313;SDS011;143;51.634;7.112;2022-09-09T13:44:35;2.03;;;1.00;;
313;SDS011;143;51.634;7.112;2022-09-09T13:47:17;4.23;;;1.40;;
313;SDS011;143;51.634;7.112;2022-09-09T13:49:44;10.63;;;1.20;;
313;SDS011;143;51.634;7.112;2022-09-09T13:54:41;5.40;;;1.47;;
313;SDS011;143;51.634;7.112;2022-09-09T13:57:18;4.07;;;1.00;;
313;SDS011;143;51.634;7.112;2022-09-09T13:59:48;6.23;;;1.20;;
313;SDS011;143;51.634;7.112;2022-09-09T14:02:14;3.33;;;1.23;;
313;SDS011;143;51.634;7.112;2022-09-09T14:04:41;5.53;;;1.47;;
313;SDS011;143;51.634;7.112;2022-09-09T14:07:09;4.10;;;1.50;;
313;SDS011;143;51.634;7.112;2022-09-09T14:09:38;4.30;;;1.20;;
313;SDS011;143;51.634;7.112;2022-09-09T14:12:05;3.70;;;1.27;;
313;SDS011;143;51.634;7.112;2022-09-09T14:14:34;2.50;;;1.50;;
313;SDS011;143;51.634;7.112;2022-09-09T14:17:00;5.50;;;1.30;;
313;SDS011;143;51.634;7.112;2022-09-09T14:19:25;4.90;;;1.90;;
313;SDS011;143;51.634;7.112;2022-09-09T14:21:51;4.53;;;1.53;;
313;SDS011;143;51.634;7.112;2022-09-09T14:24:18;7.13;;;2.13;;
313;SDS011;143;51.634;7.112;2022-09-09T14:26:44;6.63;;;2.10;;
313;SDS011;143;51.634;7.112;2022-09-09T14:29:10;3.17;;;1.60;;
313;SDS011;143;51.634;7.112;2022-09-09T14:31:35;5.30;;;1.77;;
313;SDS011;143;51.634;7.112;2022-09-09T14:34:01;5.40;;;1.70;;
313;SDS011;143;51.634;7.112;2022-09-09T14:36:27;4.57;;;1.73;;
313;SDS011;143;51.634;7.112;2022-09-09T14:38:52;6.30;;;2.33;;
313;SDS011;143;51.634;7.112;2022-09-09T14:41:18;6.77;;;1.93;;
313;SDS011;143;51.634;7.112;2022-09-09T14:43:47;6.17;;;1.97;;
313;SDS011;143;51.634;7.112;2022-09-09T14:46:14;10.20;;;1.63;;
313;SDS011;143;51.634;7.112;2022-09-09T14:48:41;3.07;;;1.30;;
313;SDS011;143;51.634;7.112;2022-09-09T14:51:10;2.80;;;1.67;;
313;SDS011;143;51.634;7.112;2022-09-09T14:53:38;4.90;;;1.50;;
313;SDS011;143;51.634;7.112;2022-09-09T14:56:12;3.77;;;1.27;;
313;SDS011;143;51.634;7.112;2022-09-09T14:58:39;4.67;;;1.40;;
313;SDS011;143;51.634;7.112;2022-09-09T15:01:08;3.30;;;1.17;;
313;SDS011;143;51.634;7.112;2022-09-09T15:03:36;2.53;;;1.13;;
313;SDS011;143;51.634;7.112;2022-09-09T15:06:20;4.83;;;1.20;;
313;SDS011;143;51.634;7.112;2022-09-09T15:08:49;7.70;;;1.33;;
313;SDS011;143;51.634;7.112;2022-09-09T15:11:16;3.20;;;1.30;;
313;SDS011;143;51.634;7.112;2022-09-09T15:13:42;7.03;;;1.23;;
313;SDS011;143;51.634;7.112;2022-09-09T15:16:10;5.97;;;1.40;;
313;SDS011;143;51.634;7.112;2022-09-09T15:18:40;2.70;;;1.30;;
313;SDS011;143;51.634;7.112;2022-09-09T15:21:08;5.70;;;1.93;;
313;SDS011;143;51.634;7.112;2022-09-09T15:23:35;6.43;;;2.20;;
313;SDS011;143;51.634;7.112;2022-09-09T15:26:01;5.10;;;2.20;;
313;SDS011;143;51.634;7.112;2022-09-09T15:28:27;4.00;;;1.47;;
313;SDS011;143;51.634;7.112;2022-09-09T15:30:54;4.43;;;1.60;;
313;SDS011;143;51.634;7.112;2022-09-09T15:33:21;2.93;;;1.40;;
313;SDS011;143;51.634;7.112;2022-09-09T15:35:47;3.33;;;1.00;;
313;SDS011;143;51.634;7.112;2022-09-09T15:38:14;2.70;;;1.00;;
313;SDS011;143;51.634;7.112;2022-09-09T15:40:41;2.13;;;1.60;;
313;SDS011;143;51.634;7.112;2022-09-09T15:43:08;3.00;;;1.60;;
313;SDS011;143;51.634;7.112;2022-09-09T15:45:35;4.50;;;1.93;;
313;SDS011;143;51.634;7.112;2022-09-09T15:48:02;4.73;;;1.40;;
313;SDS011;143;51.634;7.112;2022-09-09T15:50:28;4.10;;;1.43;;
313;SDS011;143;51.634;7.112;2022-09-09T15:52:56;5.93;;;1.30;;
313;SDS011;143;51.634;7.112;2022-09-09T15:55:22;2.17;;;1.30;;
313;SDS011;143;51.634;7.112;2022-09-09T15:57:50;4.33;;;0.97;;
313;SDS011;143;51.634;7.112;2022-09-09T16:00:17;3.43;;;1.20;;
313;SDS011;143;51.634;7.112;2022-09-09T16:02:44;1.60;;;0.90;;
313;SDS011;143;51.634;7.112;2022-09-09T16:05:11;5.13;;;1.47;;
313;SDS011;143;51.634;7.112;2022-09-09T16:07:37;1.30;;;0.93;;
313;SDS011;143;51.634;7.112;2022-09-09T16:10:03;2.17;;;0.90;;
313;SDS011;143;51.634;7.112;2022-09-09T16:12:29;3.00;;;1.10;;
313;SDS011;143;51.634;7.112;2022-09-09T16:14:54;2.50;;;0.80;;
313;SDS011;143;51.634;7.112;2022-09-09T16:17:20;3.70;;;1.10;;
313;SDS011;143;51.634;7.112;2022-09-09T16:19:46;1.50;;;1.17;;
313;SDS011;143;51.634;7.112;2022-09-09T16:22:12;5.30;;;1.03;;
313;SDS011;143;51.634;7.112;2022-09-09T16:24:40;4.63;;;1.00;;
313;SDS011;143;51.634;7.112;2022-09-09T16:27:06;5.20;;;1.20;;
313;SDS011;143;51.634;7.112;2022-09-09T16:29:31;3.90;;;1.00;;
313;SDS011;143;51.634;7.112;2022-09-09T16:31:57;3.00;;;1.00;;
313;SDS011;143;51.634;7.112;2022-09-09T16:34:25;7.07;;;1.60;;
313;SDS011;143;51.634;7.112;2022-09-09T16:36:51;1.77;;;1.00;;
313;SDS011;143;51.634;7.112;2022-09-09T16:39:18;4.67;;;1.00;;
313;SDS011;143;51.634;7.112;2022-09-09T16:41:45;5.43;;;1.23;;
313;SDS011;143;51.634;7.112;2022-09-09T16:44:15;2.37;;;1.00;;
313;SDS011;143;51.634;7.112;2022-09-09T16:46:43;2.50;;;1.17;;
313;SDS011;143;51.634;7.112;2022-09-09T16:49:10;6.80;;;1.10;;
313;SDS011;143;51.634;7.112;2022-09-09T16:51:41;1.60;;;1.10;;
313;SDS011;143;51.634;7.112;2022-09-09T16:54:09;2.40;;;0.90;;
313;SDS011;143;51.634;7.112;2022-09-09T16:56:38;3.73;;;1.03;;
313;SDS011;143;51.634;7.112;2022-09-09T16:59:09;4.03;;;1.23;;
313;SDS011;143;51.634;7.112;2022-09-09T17:01:38;2.57;;;1.13;;
313;SDS011;143;51.634;7.112;2022-09-09T17:04:15;1.60;;;0.97;;
313;SDS011;143;51.634;7.112;2022-09-09T17:06:46;2.50;;;1.00;;
313;SDS011;143;51.634;7.112;2022-09-09T17:09:14;1.70;;;0.60;;
313;SDS011;143;51.634;7.112;2022-09-09T17:11:40;5.33;;;1.07;;
313;SDS011;143;51.634;7.112;2022-09-09T17:14:07;4.20;;;0.97;;
313;SDS011;143;51.634;7.112;2022-09-09T17:16:35;4.40;;;1.20;;
313;SDS011;143;51.634;7.112;2022-09-09T17:19:02;4.23;;;1.20;;
313;SDS011;143;51.634;7.112;2022-09-09T17:21:29;9.07;;;1.40;;
313;SDS011;143;51.634;7.112;2022-09-09T17:23:56;5.23;;;1.40;;
313;SDS011;143;51.634;7.112;2022-09-09T17:26:23;1.80;;;1.30;;
313;SDS011;143;51.634;7.112;2022-09-09T17:28:54;1.77;;;1.00;;
313;SDS011;143;51.634;7.112;2022-09-09T17:31:23;2.07;;;1.30;;
313;SDS011;143;51.634;7.112;2022-09-09T17:33:50;4.47;;;1.77;;
313;SDS011;143;51.634;7.112;2022-09-09T17:36:21;9.40;;;1.53;;
313;SDS011;143;51.634;7.112;2022-09-09T17:38:51;4.13;;;1.50;;
313;SDS011;143;51.634;7.112;2022-09-09T17:41:18;4.20;;;1.50;;
313;SDS011;143;51.634;7.112;2022-09-09T17:43:46;3.47;;;2.20;;
313;SDS011;143;51.634;7.112;2022-09-09T17:48:43;4.43;;;1.27;;
313;SDS011;143;51.634;7.112;2022-09-09T17:51:11;11.00;;;1.60;;
313;SDS011;143;51.634;7.112;2022-09-09T17:53:39;4.60;;;1.47;;
313;SDS011;143;51.634;7.112;2022-09-09T17:56:07;7.13;;;1.97;;
313;SDS011;143;51.634;7.112;2022-09-09T17:58:35;2.60;;;1.60;;
313;SDS011;143;51.634;7.112;2022-09-09T18:01:02;2.40;;;1.40;;
313;SDS011;143;51.634;7.112;2022-09-09T18:03:33;3.37;;;1.97;;
313;SDS011;143;51.634;7.112;2022-09-09T18:06:01;3.47;;;2.07;;
313;SDS011;143;51.634;7.112;2022-09-09T18:08:28;2.60;;;1.80;;
313;SDS011;143;51.634;7.112;2022-09-09T18:10:54;7.17;;;2.10;;
313;SDS011;143;51.634;7.112;2022-09-09T18:13:20;2.90;;;2.10;;
313;SDS011;143;51.634;7.112;2022-09-09T18:15:46;7.07;;;2.23;;
313;SDS011;143;51.634;7.112;2022-09-09T18:18:12;4.90;;;2.20;;
313;SDS011;143;51.634;7.112;2022-09-09T18:20:38;4.60;;;1.90;;
313;SDS011;143;51.634;7.112;2022-09-09T18:23:05;6.17;;;2.20;;
313;SDS011;143;51.634;7.112;2022-09-09T18:25:30;5.40;;;2.73;;
313;SDS011;143;51.634;7.112;2022-09-09T18:28:01;4.70;;;2.20;;
313;SDS011;143;51.634;7.112;2022-09-09T18:30:27;6.20;;;3.20;;
313;SDS011;143;51.634;7.112;2022-09-09T18:32:54;5.37;;;2.23;;